Time;durP1;ratioP1;P1;durP2;ratioP2;P2;SDS_P1;SDS_P2;PMS_P1;PMS_P2;Temp;Humidity;BMP_temperature;BMP_pressure;BME280_temperature;BME280_humidity;BME280_pressure;Samples;Min_cycle;Max_cycle;Signal;HPM_P1;HPM_P2
2022/05/17 00:01:06;;;;;;;8.68;5.32;;;;;;;21.35;48.44;99817.37;4427099;32;31871;-82
2022/05/17 00:03:34;;;;;;;8.55;5.57;;;;;;;21.31;48.54;99807.03;4427729;32;32513;-82
2022/05/17 00:06:04;;;;;;;9.40;5.30;;;;;;;21.32;48.73;99817.91;4427078;32;33703;-83
2022/05/17 00:08:33;;;;;;;9.73;5.18;;;;;;;21.26;48.95;99812.59;4427264;32;33850;-83
2022/05/17 00:11:02;;;;;;;10.07;5.85;;;;;;;21.11;49.27;99799.41;4426956;32;32903;-82
2022/05/17 00:13:30;;;;;;;10.48;5.60;;;;;;;21.12;49.15;99791.88;4427259;32;34536;-82
2022/05/17 00:16:01;;;;;;;10.38;5.40;;;;;;;21.11;49.08;99785.44;4428607;32;34523;-82
2022/05/17 00:18:33;;;;;;;8.80;5.12;;;;;;;21.12;48.84;99777.91;4441741;32;33978;-83
2022/05/17 00:21:04;;;;;;;9.60;5.43;;;;;;;21.11;48.98;99782.66;4428695;32;31957;-83
2022/05/17 00:23:33;;;;;;;8.77;5.18;;;;;;;21.09;49.03;99784.88;4428949;32;32266;-82
2022/05/17 00:26:02;;;;;;;7.80;5.10;;;;;;;21.07;49.13;99789.06;4429214;32;34347;-82
2022/05/17 00:28:34;;;;;;;12.25;5.57;;;;;;;20.97;49.50;99785.13;4428693;32;33942;-82
2022/05/17 00:31:02;;;;;;;8.30;5.35;;;;;;;21.09;49.24;99781.25;4429109;32;33585;-82
2022/05/17 00:33:32;;;;;;;8.18;5.40;;;;;;;21.00;49.53;99783.75;4416204;32;33134;-82
2022/05/17 00:36:01;;;;;;;12.55;5.68;;;;;;;20.93;49.76;99789.59;4441875;32;34331;-83
2022/05/17 00:38:34;;;;;;;10.32;5.43;;;;;;;21.05;49.38;99780.97;4429060;32;34879;-82
2022/05/17 00:41:05;;;;;;;10.52;5.62;;;;;;;20.87;50.08;99784.25;4440916;32;33023;-82
2022/05/17 00:46:56;;;;;;;9.00;5.90;;;;;;;20.68;50.53;99776.41;4442839;32;34337;-82
2022/05/17 00:49:54;;;;;;;10.63;5.35;;;;;;;20.80;50.08;99780.94;4424065;32;32388;-87
2022/05/17 00:52:41;;;;;;;10.30;5.30;;;;;;;20.71;50.34;99784.25;4428514;32;32163;-89
2022/05/17 00:55:27;;;;;;;7.72;5.32;;;;;;;20.68;50.39;99781.16;4441350;32;33805;-88
2022/05/17 00:58:26;;;;;;;11.07;5.43;;;;;;;20.71;50.23;99770.28;4428707;32;33903;-88
2022/05/17 01:01:09;;;;;;;10.18;5.12;;;;;;;20.77;50.03;99779.53;4428771;32;33937;-88
2022/05/17 01:03:42;;;;;;;9.02;5.28;;;;;;;20.64;50.41;99766.91;4428273;32;31971;-88
2022/05/17 01:06:17;;;;;;;9.15;5.30;;;;;;;20.59;50.44;99766.91;4441889;32;33990;-89
2022/05/17 01:08:47;;;;;;;9.95;5.10;;;;;;;20.60;50.25;99765.78;4428612;32;32633;-88
2022/05/17 01:11:19;;;;;;;10.23;5.20;;;;;;;20.59;50.30;99764.09;4428968;32;34000;-88
2022/05/17 01:16:40;;;;;;;6.68;4.90;;;;;;;20.64;50.14;99755.75;4430444;32;32216;-89
2022/05/17 01:19:10;;;;;;;16.20;5.53;;;;;;;20.62;50.28;99759.94;4428256;32;33043;-87
2022/05/17 01:21:47;;;;;;;10.70;5.43;;;;;;;20.54;50.56;99752.09;4428264;32;34215;-88
2022/05/17 01:24:14;;;;;;;10.80;5.55;;;;;;;20.32;51.30;99752.25;4428562;32;33428;-87
2022/05/17 01:26:53;;;;;;;10.40;5.12;;;;;;;20.34;51.28;99750.03;4428043;32;33013;-88
2022/05/17 01:29:29;;;;;;;10.68;5.40;;;;;;;20.51;50.72;99759.06;4428372;32;32827;-88
2022/05/17 01:32:00;;;;;;;9.23;5.20;;;;;;;20.37;51.32;99757.84;4429034;32;33993;-88
2022/05/17 01:34:29;;;;;;;11.75;5.37;;;;;;;20.54;50.87;99760.47;4428590;32;32067;-87
2022/05/17 01:37:04;;;;;;;8.15;5.00;;;;;;;20.38;51.26;99754.81;4428602;32;33881;-87
2022/05/17 01:39:38;;;;;;;7.95;4.82;;;;;;;20.28;51.80;99751.94;4441456;32;34560;-88
2022/05/17 01:42:07;;;;;;;9.38;5.40;;;;;;;20.35;51.57;99755.31;4415840;32;32481;-88
2022/05/17 01:44:41;;;;;;;10.70;5.50;;;;;;;20.45;51.14;99757.34;4427721;32;31897;-87
2022/05/17 01:47:11;;;;;;;9.10;5.18;;;;;;;20.55;50.86;99756.56;4439899;32;34735;-89
2022/05/17 01:49:39;;;;;;;10.68;5.55;;;;;;;20.53;51.06;99751.25;4428185;32;34255;-87
2022/05/17 01:52:07;;;;;;;9.07;5.28;;;;;;;20.52;51.20;99738.44;4428571;32;34167;-90
2022/05/17 01:54:41;;;;;;;11.48;5.03;;;;;;;20.48;51.33;99740.09;4427856;32;34014;-88
2022/05/17 01:57:11;;;;;;;9.65;5.62;;;;;;;20.53;51.11;99742.91;4414075;32;33228;-88
2022/05/17 01:59:39;;;;;;;8.27;5.43;;;;;;;20.68;50.60;99740.16;4427908;32;35254;-88
2022/05/17 02:02:09;;;;;;;12.98;5.65;;;;;;;20.74;50.56;99746.59;4427996;32;33809;-87
2022/05/17 02:04:42;;;;;;;8.55;5.20;;;;;;;20.71;50.30;99745.19;4415813;32;31867;-89
2022/05/17 02:07:11;;;;;;;10.07;5.30;;;;;;;20.70;50.45;99742.69;4427871;32;33178;-87
2022/05/17 02:09:47;;;;;;;10.18;5.53;;;;;;;20.54;51.43;99746.53;4428118;32;35336;-86
2022/05/17 02:12:18;;;;;;;9.48;4.95;;;;;;;20.46;52.00;99745.09;4428634;32;33908;-88
2022/05/17 02:14:52;;;;;;;9.50;4.70;;;;;;;20.62;51.59;99744.03;4428110;32;33528;-87
2022/05/17 02:17:22;;;;;;;9.82;5.32;;;;;;;20.60;51.69;99737.06;4428400;32;33685;-86
2022/05/17 02:19:54;;;;;;;6.53;4.60;;;;;;;20.52;51.96;99732.00;4414794;32;33956;-86
2022/05/17 02:22:22;;;;;;;9.95;4.78;;;;;;;20.69;51.43;99738.22;4427893;32;33774;-88
2022/05/17 02:24:52;;;;;;;9.27;4.57;;;;;;;20.74;51.24;99734.59;4428117;32;33749;-87
2022/05/17 02:27:20;;;;;;;9.43;4.70;;;;;;;20.73;51.23;99730.97;4428316;32;34359;-86
2022/05/17 02:29:51;;;;;;;8.20;5.15;;;;;;;20.66;51.41;99727.59;4427376;32;33891;-87
2022/05/17 02:32:19;;;;;;;10.00;5.57;;;;;;;20.68;51.48;99723.44;4428086;32;33339;-88
2022/05/17 02:34:50;;;;;;;9.18;5.20;;;;;;;20.59;51.97;99733.44;4428154;32;33620;-88
2022/05/17 02:37:20;;;;;;;9.85;5.22;;;;;;;20.66;51.82;99728.44;4427516;32;32108;-87
2022/05/17 02:39:51;;;;;;;9.18;5.10;;;;;;;20.73;51.63;99730.12;4427611;32;33915;-85
2022/05/17 02:42:19;;;;;;;8.30;5.18;;;;;;;20.79;51.57;99737.41;4427743;32;34809;-82
2022/05/17 02:44:48;;;;;;;8.07;4.93;;;;;;;20.77;51.70;99736.84;4415362;32;31968;-82
2022/05/17 02:47:22;;;;;;;8.82;4.82;;;;;;;20.69;52.43;99736.25;4428152;32;33275;-82
2022/05/17 02:49:57;;;;;;;6.60;4.25;;;;;;;20.83;52.15;99738.50;4440489;32;35101;-82
2022/05/17 02:52:25;;;;;;;;;;;;;;;20.91;52.21;99749.13;4428040;32;32475;-82
2022/05/17 02:54:54;;;;;;;9.35;4.50;;;;;;;21.04;51.75;99745.81;4428154;32;33440;-81
2022/05/17 02:57:22;;;;;;;8.00;5.25;;;;;;;21.02;51.95;99743.28;4415219;32;32230;-82
2022/05/17 02:59:52;;;;;;;8.80;4.82;;;;;;;21.00;52.09;99736.31;4415095;32;33540;-83
2022/05/17 03:02:26;;;;;;;9.57;4.82;;;;;;;21.00;52.03;99742.72;4427859;32;34323;-82
2022/05/17 03:04:54;;;;;;;7.72;4.95;;;;;;;21.18;51.47;99746.94;4427810;32;32114;-81
2022/05/17 03:07:25;;;;;;;7.30;5.18;;;;;;;21.26;51.27;99746.44;4427699;32;34494;-82
2022/05/17 03:09:58;;;;;;;9.48;5.45;;;;;;;21.42;50.43;99763.19;4415260;32;33015;-82
2022/05/17 03:12:26;;;;;;;7.20;4.93;;;;;;;21.26;50.59;99765.97;4427736;32;34626;-83
2022/05/17 03:14:56;;;;;;;9.27;5.50;;;;;;;21.24;49.90;99770.16;4427603;32;31575;-83
2022/05/17 03:17:27;;;;;;;8.85;5.50;;;;;;;21.51;49.38;99769.88;4440597;32;34630;-82
2022/05/17 03:19:58;;;;;;;9.68;5.07;;;;;;;21.44;49.63;99769.34;4427181;32;35044;-81
2022/05/17 03:22:29;;;;;;;11.48;5.40;;;;;;;21.37;49.90;99773.25;4427766;32;34608;-82
2022/05/17 03:25:03;;;;;;;10.55;4.87;;;;;;;21.32;50.17;99770.44;4428248;32;33322;-82
2022/05/17 03:27:54;;;;;;;8.00;4.65;;;;;;;21.39;49.42;99774.94;4419202;32;33145;-82
2022/05/17 03:30:22;;;;;;;8.65;5.00;;;;;;;21.47;49.20;99774.34;4427478;32;34704;-82
2022/05/17 03:32:52;;;;;;;9.18;4.57;;;;;;;21.68;48.59;99773.22;4415157;32;32562;-82
2022/05/17 03:35:21;;;;;;;9.73;4.82;;;;;;;21.62;48.70;99774.34;4414625;32;32090;-82
2022/05/17 03:37:52;;;;;;;7.93;4.72;;;;;;;21.53;48.95;99765.69;4427362;32;34500;-83
2022/05/17 03:40:26;;;;;;;9.73;5.05;;;;;;;21.60;48.98;99769.03;4427464;32;34370;-82
2022/05/17 03:42:54;;;;;;;8.52;4.72;;;;;;;21.83;48.14;99764.84;4428030;32;33985;-83
2022/05/17 03:45:22;;;;;;;8.85;5.05;;;;;;;21.84;47.80;99768.47;4414399;32;32050;-82
2022/05/17 03:47:50;;;;;;;7.82;4.75;;;;;;;21.99;47.29;99769.28;4428138;32;34496;-83
2022/05/17 03:50:18;;;;;;;7.47;4.32;;;;;;;21.94;47.18;99760.09;4426728;32;34424;-82
2022/05/17 03:52:51;;;;;;;10.30;4.65;;;;;;;21.88;47.29;99756.47;4413765;32;33376;-82
2022/05/17 03:55:19;;;;;;;7.65;3.90;;;;;;;21.94;47.05;99752.53;4427072;32;32003;-82
2022/05/17 03:57:48;;;;;;;9.30;4.68;;;;;;;21.91;47.03;99757.84;4427192;32;33275;-83
2022/05/17 04:00:16;;;;;;;8.80;4.60;;;;;;;21.86;47.52;99757.84;4414534;32;33964;-82
2022/05/17 04:02:47;;;;;;;9.73;4.00;;;;;;;21.93;47.56;99758.41;4427830;32;33928;-83
2022/05/17 04:05:18;;;;;;;9.38;4.15;;;;;;;22.02;47.16;99759.53;4427051;32;33329;-82
2022/05/17 04:07:53;;;;;;;7.43;4.00;;;;;;;21.92;47.01;99751.97;4415057;32;32095;-82
2022/05/17 04:10:26;;;;;;;7.80;4.12;;;;;;;21.98;47.13;99744.44;4425665;32;32917;-81
2022/05/17 04:12:54;;;;;;;6.68;4.45;;;;;;;22.14;46.66;99757.25;4427265;32;33592;-82
2022/05/17 04:15:23;;;;;;;7.50;4.47;;;;;;;22.14;46.52;99753.62;4427236;32;33337;-82
2022/05/17 04:17:54;;;;;;;8.57;4.07;;;;;;;22.21;46.42;99754.16;4411882;32;33201;-82
2022/05/17 04:20:26;;;;;;;7.20;4.18;;;;;;;22.20;46.69;99755.28;4411424;32;33831;-83
2022/05/17 04:22:56;;;;;;;7.65;4.47;;;;;;;22.00;48.25;99757.00;4411768;32;32507;-82
2022/05/17 04:25:35;;;;;;;8.30;3.90;;;;;;;22.11;48.54;99756.97;4424144;32;32571;-82
2022/05/17 04:28:06;;;;;;;9.00;4.00;;;;;;;22.11;49.01;99759.78;4424525;32;33756;-83
2022/05/17 04:30:49;;;;;;;9.80;3.92;;;;;;;22.17;48.97;99756.69;4401543;32;33041;-81
2022/05/17 04:33:17;;;;;;;12.68;5.40;;;;;;;22.29;48.65;99757.22;4424142;32;33984;-83
2022/05/17 04:35:50;;;;;;;19.77;11.95;;;;;;;22.33;48.90;99760.28;4424023;32;31961;-85
2022/05/17 04:38:21;;;;;;;14.18;7.18;;;;;;;22.34;48.78;99759.16;4411829;32;33732;-81
2022/05/17 04:41:00;;;;;;;12.98;6.30;;;;;;;22.29;49.13;99757.22;4424303;32;35056;-83
2022/05/17 04:43:31;;;;;;;12.95;6.55;;;;;;;22.38;48.85;99751.03;4411352;32;32328;-82
2022/05/17 04:46:00;;;;;;;11.43;6.68;;;;;;;22.38;49.07;99743.47;4423507;32;31983;-83
2022/05/17 04:48:30;;;;;;;9.98;5.35;;;;;;;22.34;48.97;99753.56;4398839;32;32315;-82
2022/05/17 04:51:10;;;;;;;10.25;4.50;;;;;;;22.46;47.35;99756.03;4411356;32;32938;-83
2022/05/17 04:53:47;;;;;;;10.90;5.72;;;;;;;22.64;46.34;99758.22;4412395;32;33925;-83
2022/05/17 04:56:20;;;;;;;11.40;5.53;;;;;;;22.46;46.27;99756.87;4399500;32;32013;-83
2022/05/17 04:58:56;;;;;;;10.73;5.82;;;;;;;22.53;46.25;99756.56;4412076;32;34846;-84
2022/05/17 05:01:34;;;;;;;22.42;15.73;;;;;;;22.60;46.06;99754.31;4414233;32;34361;-85
2022/05/17 05:04:06;;;;;;;13.52;7.80;;;;;;;22.58;46.14;99754.59;4413877;32;33576;-84
2022/05/17 05:06:41;;;;;;;14.98;6.57;;;;;;;22.59;45.99;99755.44;4433548;32;34247;-83
2022/05/17 05:09:15;;;;;;;10.13;5.53;;;;;;;22.54;46.10;99756.28;4428496;32;32374;-82
2022/05/17 05:11:44;;;;;;;12.82;5.78;;;;;;;22.65;46.09;99763.53;4440757;32;32594;-83
2022/05/17 05:14:20;;;;;;;9.80;5.95;;;;;;;22.80;45.69;99753.38;4428478;32;32332;-82
2022/05/17 05:16:48;;;;;;;11.38;5.30;;;;;;;22.57;45.63;99757.69;4439583;32;32187;-85
2022/05/17 05:19:31;;;;;;;10.35;5.25;;;;;;;22.38;46.22;99754.66;4426753;32;32916;-84
2022/05/17 05:22:19;;;;;;;20.48;5.70;;;;;;;22.27;46.35;99758.63;4425447;32;33587;-84
2022/05/17 05:24:53;;;;;;;8.43;5.60;;;;;;;22.33;46.57;99766.72;4437289;32;34579;-85
2022/05/17 05:27:41;;;;;;;12.07;5.35;;;;;;;22.60;46.01;99766.34;4426098;32;32834;-84
2022/05/17 05:30:26;;;;;;;11.18;6.15;;;;;;;22.71;45.91;99769.94;4424987;32;33768;-84
2022/05/17 05:33:04;;;;;;;13.70;6.00;;;;;;;22.67;45.78;99766.03;4424321;32;32790;-85
2022/05/17 05:35:34;;;;;;;11.12;6.30;;;;;;;22.80;45.54;99762.63;4424312;32;34120;-85
2022/05/17 05:38:13;;;;;;;10.00;5.97;;;;;;;22.61;46.06;99764.37;4423249;32;31995;-85
2022/05/17 05:40:50;;;;;;;13.40;6.18;;;;;;;22.37;46.60;99768.94;4424942;32;34268;-86
2022/05/17 05:43:20;;;;;;;9.75;5.65;;;;;;;22.40;46.69;99766.41;4424787;32;32564;-85
2022/05/17 05:45:51;;;;;;;12.75;6.43;;;;;;;22.68;45.67;99765.75;4437808;32;33983;-85
2022/05/17 05:48:24;;;;;;;11.68;6.05;;;;;;;22.01;47.53;99772.69;4425475;32;31932;-87
2022/05/17 05:50:57;;;;;;;;;;;;;;;22.51;46.74;99775.59;4426657;32;34001;-86
2022/05/17 05:53:39;;;;;;;11.20;7.18;;;;;;;22.17;47.48;99758.66;4426120;32;34655;-86
2022/05/17 05:56:20;;;;;;;15.73;7.28;;;;;;;22.35;47.24;99763.63;4426188;32;32040;-86
2022/05/17 05:58:58;;;;;;;13.00;6.70;;;;;;;22.32;47.75;99764.19;4425592;32;32932;-85
2022/05/17 06:01:32;;;;;;;15.95;6.90;;;;;;;22.61;47.28;99765.22;4425706;32;33838;-82
2022/05/17 06:04:04;;;;;;;12.05;7.32;;;;;;;22.91;46.93;99769.00;4425837;32;34334;-82
2022/05/17 06:06:44;;;;;;;10.88;6.45;;;;;;;22.86;47.46;99769.84;4400784;32;33585;-83
2022/05/17 06:09:20;;;;;;;10.95;6.07;;;;;;;22.82;47.82;99779.94;4426115;32;34474;-81
2022/05/17 06:11:56;;;;;;;11.75;5.85;;;;;;;23.14;47.52;99787.06;4426075;32;33640;-81
2022/05/17 06:14:35;;;;;;;12.15;5.85;;;;;;;22.44;49.58;99784.28;4414153;32;32967;-81
2022/05/17 06:17:11;;;;;;;12.82;6.03;;;;;;;22.66;49.17;99795.13;4428166;32;32547;-82
2022/05/17 06:20:00;;;;;;;13.60;6.40;;;;;;;22.34;50.15;99787.97;4429281;32;32700;-81
2022/05/17 06:22:48;;;;;;;10.10;6.40;;;;;;;22.12;50.71;99789.41;4441692;32;33818;-82
2022/05/17 06:25:40;;;;;;;14.30;6.25;;;;;;;22.30;50.87;99791.59;4428397;32;35323;-82
2022/05/17 06:28:24;;;;;;;11.77;5.90;;;;;;;22.63;50.35;99790.09;4441005;32;33919;-81
2022/05/17 06:30:59;;;;;;;15.73;5.72;;;;;;;22.96;49.77;99794.16;4441866;32;33483;-81
2022/05/17 06:33:47;;;;;;;9.18;5.30;;;;;;;22.33;51.17;99802.22;4440623;32;34003;-81
2022/05/17 06:36:34;;;;;;;10.18;6.32;;;;;;;22.58;50.72;99796.56;4429134;32;32557;-81
2022/05/17 06:39:32;;;;;;;10.68;6.37;;;;;;;22.63;50.75;99795.69;4440864;32;32754;-82
2022/05/17 06:42:15;;;;;;;12.55;5.12;;;;;;;22.92;50.16;99798.66;4440320;32;34286;-81
2022/05/17 06:44:52;;;;;;;10.40;4.95;;;;;;;22.71;50.78;99797.06;4441772;32;34654;-81
2022/05/17 06:47:23;;;;;;;10.30;5.20;;;;;;;23.21;49.67;99807.19;4428255;32;34581;-82
2022/05/17 06:49:54;;;;;;;12.13;5.43;;;;;;;23.42;49.48;99800.28;4428170;32;32403;-82
2022/05/17 06:52:27;;;;;;;7.87;6.30;;;;;;;22.82;50.60;99799.53;4427933;32;32149;-82
2022/05/17 06:54:57;;;;;;;11.35;6.57;;;;;;;23.22;49.88;99797.66;4428071;32;32311;-82
2022/05/17 06:57:31;;;;;;;7.70;5.05;;;;;;;23.59;49.64;99806.38;4415804;32;33985;-82
2022/05/17 07:00:05;;;;;;;10.05;5.15;;;;;;;23.57;49.58;99796.56;4441033;32;33913;-81
2022/05/17 07:02:38;;;;;;;11.82;5.22;;;;;;;23.43;49.24;99798.31;4438976;32;33085;-83
2022/05/17 07:05:09;;;;;;;10.30;4.70;;;;;;;23.62;48.92;99797.38;4443850;32;33741;-82
2022/05/17 07:07:38;;;;;;;10.00;4.70;;;;;;;23.59;48.29;99795.16;4443713;32;34732;-83
2022/05/17 07:13:08;;;;;;;8.95;4.30;;;;;;;23.71;47.49;99803.19;4445332;32;32170;-82
2022/05/17 07:15:43;;;;;;;7.32;3.70;;;;;;;23.13;48.53;99805.81;4444667;32;33849;-82
2022/05/17 07:18:14;;;;;;;12.25;7.55;;;;;;;23.40;47.88;99793.34;4470159;32;34600;-83
2022/05/17 07:20:45;;;;;;;10.48;5.72;;;;;;;23.49;48.02;99808.38;4430676;32;32653;-82
2022/05/17 07:23:16;;;;;;;11.18;6.20;;;;;;;23.15;48.51;99806.38;4430793;32;31982;-83
2022/05/17 07:25:47;;;;;;;9.20;4.30;;;;;;;23.37;48.40;99796.72;4429838;32;32303;-83
2022/05/17 07:28:23;;;;;;;9.68;4.90;;;;;;;23.41;49.53;99792.19;4443334;32;34147;-82
2022/05/17 07:30:54;;;;;;;13.70;5.95;;;;;;;23.73;48.16;99802.91;4456418;32;34769;-82
2022/05/17 07:33:33;;;;;;;8.98;4.75;;;;;;;23.44;48.87;99809.25;4446325;32;32070;-82
2022/05/17 07:36:09;;;;;;;10.38;4.30;;;;;;;23.92;48.18;99809.47;4443730;32;32214;-82
2022/05/17 07:38:44;;;;;;;10.60;4.12;;;;;;;23.79;48.10;99815.75;4445102;32;33896;-83
2022/05/17 07:41:17;;;;;;;8.25;3.97;;;;;;;23.78;48.48;99814.91;4456333;32;33844;-82
2022/05/17 07:44:04;;;;;;;10.98;4.10;;;;;;;23.61;49.18;99814.47;4444851;32;31635;-83
2022/05/17 07:46:35;;;;;;;12.88;6.68;;;;;;;23.56;49.20;99815.34;4444115;32;34370;-82
2022/05/17 07:49:10;;;;;;;8.75;4.82;;;;;;;23.89;49.01;99813.69;4430895;32;32946;-82
2022/05/17 07:51:46;;;;;;;11.65;4.32;;;;;;;23.94;48.65;99805.25;4430056;32;33408;-82
2022/05/17 07:54:23;;;;;;;7.95;4.50;;;;;;;23.89;49.20;99819.31;4430879;32;32050;-82
2022/05/17 07:56:54;;;;;;;7.68;4.40;;;;;;;23.27;50.63;99818.06;4443163;32;33767;-81
2022/05/17 07:59:28;;;;;;;8.90;4.87;;;;;;;23.65;49.88;99810.81;4455839;32;34379;-82
2022/05/17 08:02:01;;;;;;;7.10;4.12;;;;;;;23.57;50.31;99813.38;4442947;32;34216;-83
2022/05/17 08:04:33;;;;;;;11.18;4.68;;;;;;;23.71;50.33;99819.16;4443235;32;33233;-82
2022/05/17 08:07:12;;;;;;;9.25;5.03;;;;;;;23.75;50.20;99821.09;4443518;32;34381;-82
2022/05/17 08:09:47;;;;;;;14.05;5.10;;;;;;;23.76;49.82;99814.38;4443398;32;34405;-83
2022/05/17 08:12:19;;;;;;;7.78;4.55;;;;;;;23.55;50.74;99824.06;4443024;32;33442;-83
2022/05/17 08:14:48;;;;;;;7.03;4.45;;;;;;;23.46;51.25;99820.16;4455595;32;33313;-82
2022/05/17 08:17:23;;;;;;;8.25;4.70;;;;;;;23.58;50.63;99826.28;4440339;32;33789;-82
2022/05/17 08:19:59;;;;;;;10.20;4.60;;;;;;;23.82;49.65;99829.19;4440073;32;34291;-82
2022/05/17 08:22:32;;;;;;;8.05;4.80;;;;;;;23.46;50.75;99822.97;4439967;32;33987;-82
2022/05/17 08:27:57;;;;;;;9.18;5.25;;;;;;;22.98;52.12;99842.28;4440065;32;32101;-82
2022/05/17 08:30:27;;;;;;;9.32;5.20;;;;;;;23.41;51.48;99842.59;4439872;32;35171;-82
2022/05/17 08:33:17;;;;;;;17.98;13.35;;;;;;;23.45;50.59;99847.34;4439647;32;33118;-82
2022/05/17 08:35:57;;;;;;;17.95;11.02;;;;;;;23.49;50.96;99850.41;4429527;32;33825;-84
2022/05/17 08:38:36;;;;;;;9.70;5.28;;;;;;;23.49;50.66;99842.00;4429482;32;33814;-83
2022/05/17 08:41:42;;;;;;;8.85;5.28;;;;;;;23.39;51.08;99859.72;4431665;32;33263;-83
2022/05/17 08:44:21;;;;;;;8.27;4.62;;;;;;;23.05;51.79;99839.19;4429978;32;33846;-82
2022/05/17 08:47:11;;;;;;;14.48;5.80;;;;;;;22.92;52.24;99854.63;4442923;32;31672;-82
2022/05/17 08:50:13;;;;;;;11.95;6.32;;;;;;;23.08;52.24;99847.00;4461292;32;32833;-81
2022/05/17 08:52:48;;;;;;;11.18;5.20;;;;;;;22.74;52.80;99853.31;4443192;32;33276;-83
2022/05/17 08:55:32;;;;;;;13.18;7.47;;;;;;;22.77;53.27;99849.91;4441868;32;32468;-83
2022/05/17 08:58:12;;;;;;;13.30;6.68;;;;;;;22.73;55.05;99850.78;4441973;32;33362;-83
2022/05/17 09:00:44;;;;;;;14.10;7.55;;;;;;;22.76;56.16;99862.22;4439175;32;32150;-83
2022/05/17 09:03:39;;;;;;;13.32;6.47;;;;;;;22.71;57.89;99867.03;4438709;32;34446;-82
2022/05/17 09:06:32;;;;;;;12.45;6.60;;;;;;;22.62;58.38;99867.59;4426212;32;34313;-81
2022/05/17 09:09:34;;;;;;;12.37;7.75;;;;;;;22.51;59.58;99871.53;4412975;32;32070;-82
2022/05/17 09:12:47;;;;;;;11.40;6.53;;;;;;;22.45;60.47;99869.88;4394449;32;32448;-81
2022/05/17 09:15:20;;;;;;;13.13;7.72;;;;;;;22.34;60.08;99865.41;4425892;32;35223;-82
2022/05/17 09:17:51;;;;;;;27.13;17.83;;;;;;;22.33;61.20;99872.13;4408738;32;176267;-83
2022/05/17 09:20:29;;;;;;;17.10;10.93;;;;;;;22.44;60.92;99870.16;4413604;32;31950;-83
2022/05/17 09:22:58;;;;;;;13.98;9.52;;;;;;;22.46;60.98;99865.97;4413244;32;32771;-82
2022/05/17 09:26:03;;;;;;;17.27;9.55;;;;;;;22.47;60.98;99867.62;4413830;32;34415;-83
2022/05/17 09:31:55;;;;;;;20.70;9.00;;;;;;;22.67;61.50;99866.75;4426005;32;32884;-84
2022/05/17 09:35:15;;;;;;;25.80;10.80;;;;;;;22.67;61.02;99864.78;4402376;32;31927;-83
2022/05/17 09:38:10;;;;;;;17.67;8.57;;;;;;;22.81;61.08;99861.41;4418155;32;34282;-84
2022/05/17 09:40:58;;;;;;;12.65;8.05;;;;;;;22.81;61.71;99853.00;4413320;32;32937;-84
2022/05/17 09:43:41;;;;;;;25.42;16.30;;;;;;;22.92;62.24;99854.63;4426755;32;34386;-83
2022/05/17 09:46:55;;;;;;;25.30;13.57;;;;;;;23.08;61.71;99859.03;4439923;32;34517;-84
2022/05/17 09:52:38;;;;;;;18.15;9.43;;;;;;;22.92;62.92;99849.88;4415074;32;33874;-84
2022/05/17 09:55:21;;;;;;;64.37;38.63;;;;;;;23.08;62.25;99849.81;4413336;32;33041;-84
2022/05/17 09:58:00;;;;;;;13.50;9.05;;;;;;;23.05;62.21;99848.41;4413435;32;33256;-84
2022/05/17 10:00:49;;;;;;;12.43;7.72;;;;;;;22.96;62.45;99855.75;4413261;32;34481;-84
2022/05/17 10:03:38;;;;;;;9.68;7.22;;;;;;;22.66;62.36;99856.69;4413565;32;34053;-84
2022/05/17 10:06:34;;;;;;;17.27;8.85;;;;;;;22.68;63.25;99852.47;4413167;32;32156;-84
2022/05/17 10:09:06;;;;;;;13.50;7.87;;;;;;;22.77;63.13;99847.09;4414069;32;34504;-85
2022/05/17 10:11:57;;;;;;;13.93;8.48;;;;;;;22.67;63.52;99855.56;4401350;32;33029;-84
2022/05/17 10:14:48;;;;;;;12.45;7.75;;;;;;;22.77;62.15;99843.47;4413547;32;34211;-85
2022/05/17 10:17:43;;;;;;;12.82;7.85;;;;;;;22.73;62.67;99846.03;4422968;32;32019;-85
2022/05/17 10:20:18;;;;;;;12.88;8.68;;;;;;;22.69;62.60;99842.13;4441278;32;33670;-84
2022/05/17 10:23:16;;;;;;;18.45;13.95;;;;;;;22.86;62.34;99851.03;4428249;32;32839;-85
2022/05/17 10:26:05;;;;;;;17.23;13.05;;;;;;;22.92;62.03;99849.88;4447408;32;33847;-85
2022/05/17 10:28:40;;;;;;;16.98;10.07;;;;;;;22.97;62.15;99835.84;4428520;32;32330;-81
2022/05/17 10:31:21;;;;;;;16.02;11.88;;;;;;;23.02;62.54;99843.41;4428413;32;33094;-82
2022/05/17 10:33:49;;;;;;;12.30;8.38;;;;;;;23.06;60.65;99836.09;4441228;32;35264;-83
2022/05/17 10:36:24;;;;;;;13.05;7.40;;;;;;;23.06;60.51;99838.91;4441682;32;32508;-82
2022/05/17 10:39:19;;;;;;;15.33;10.47;;;;;;;22.57;59.65;99841.59;4442172;32;32082;-82
2022/05/17 10:41:52;;;;;;;16.35;9.65;;;;;;;23.08;59.07;99838.63;4435463;32;33206;-81
2022/05/17 10:44:23;;;;;;;14.85;10.70;;;;;;;23.30;60.41;99834.28;4441531;32;35111;-80
2022/05/17 10:46:56;;;;;;;55.10;36.70;;;;;;;23.55;59.36;99841.69;4441405;32;32557;-84
2022/05/17 10:50:05;;;;;;;19.15;13.82;;;;;;;23.25;57.82;99842.72;4441908;32;32006;-85
2022/05/17 10:52:49;;;;;;;11.65;7.60;;;;;;;23.40;57.50;99838.97;4453819;32;33701;-85
2022/05/17 10:55:43;;;;;;;11.70;7.82;;;;;;;23.51;58.85;99842.53;4454133;32;34447;-86
2022/05/17 10:58:41;;;;;;;11.27;7.75;;;;;;;23.34;57.60;99837.34;4453277;32;34157;-85
2022/05/17 11:01:21;;;;;;;14.50;7.97;;;;;;;23.42;59.73;99844.28;4454537;32;34317;-81
2022/05/17 11:04:02;;;;;;;34.53;10.02;;;;;;;23.56;58.92;99836.94;4453948;32;34509;-79
2022/05/17 11:06:42;;;;;;;13.80;9.07;;;;;;;23.61;59.07;99836.91;4440763;32;34197;-83
2022/05/17 11:09:28;;;;;;;13.27;9.38;;;;;;;23.58;59.95;99834.69;4454141;32;33938;-82
2022/05/17 11:12:05;;;;;;;10.35;8.07;;;;;;;23.53;60.80;99834.69;4430792;32;33759;-82
2022/05/17 11:14:52;;;;;;;11.73;7.68;;;;;;;23.49;59.76;99831.63;4426477;32;33148;-82
2022/05/17 11:17:41;;;;;;;9.95;6.95;;;;;;;23.49;59.13;99831.63;4428805;32;33054;-84
2022/05/17 11:20:29;;;;;;;10.90;8.10;;;;;;;23.31;59.10;99830.38;4428165;32;33301;-83
2022/05/17 11:23:02;;;;;;;10.63;7.85;;;;;;;23.23;59.16;99819.78;4441654;32;34570;-84
2022/05/17 11:25:57;;;;;;;10.30;7.68;;;;;;;23.34;58.70;99817.75;4428076;32;31916;-84
2022/05/17 11:29:00;;;;;;;11.55;7.53;;;;;;;23.48;58.48;99817.91;4439080;32;34487;-82
2022/05/17 11:31:56;;;;;;;13.30;8.07;;;;;;;23.43;58.66;99815.12;4422146;32;33230;-82
2022/05/17 11:34:41;;;;;;;14.57;7.57;;;;;;;23.42;58.45;99811.50;4441571;32;33654;-83
2022/05/17 11:37:37;;;;;;;13.40;7.68;;;;;;;23.62;58.25;99816.16;4428775;32;34785;-84
2022/05/17 11:40:09;;;;;;;8.38;6.70;;;;;;;23.68;58.03;99803.78;4422977;32;33088;-83
2022/05/17 11:43:40;;;;;;;14.20;8.25;;;;;;;23.65;55.99;99802.41;4441271;32;33515;-82
2022/05/17 11:45:49;;;;;;;12.52;7.55;;;;;;;23.90;56.84;99804.16;4440691;32;32956;-83
2022/05/17 11:48:24;;;;;;;11.40;8.40;;;;;;;23.93;57.09;99792.34;4428796;32;33652;-84
2022/05/17 11:50:58;;;;;;;15.98;7.00;;;;;;;23.90;57.17;99803.31;4440912;32;34376;-84
2022/05/17 11:53:26;;;;;;;10.43;7.78;;;;;;;23.88;56.30;99792.41;4428012;32;32496;-84
2022/05/17 11:56:11;;;;;;;10.23;7.00;;;;;;;23.91;56.33;99789.00;4428963;32;32032;-83
2022/05/17 11:58:42;;;;;;;12.52;7.15;;;;;;;24.00;56.82;99788.37;4428336;32;33181;-83
2022/05/17 12:01:36;;;;;;;11.15;7.12;;;;;;;23.90;57.04;99787.34;4428202;32;35120;-84
2022/05/17 12:04:09;;;;;;;11.07;7.70;;;;;;;23.97;56.82;99785.03;4433602;32;33424;-84
2022/05/17 12:07:06;;;;;;;13.77;10.32;;;;;;;23.88;57.26;99786.78;4428639;32;33625;-82
2022/05/17 12:09:38;;;;;;;11.45;9.20;;;;;;;23.89;55.90;99782.03;4425005;32;33660;-82
2022/05/17 12:12:18;;;;;;;19.00;13.13;;;;;;;23.92;55.67;99787.87;4428170;32;34617;-81
2022/05/17 12:15:13;;;;;;;12.43;8.45;;;;;;;23.94;56.08;99782.81;4427832;32;32998;-83
2022/05/17 12:17:44;;;;;;;11.65;8.23;;;;;;;23.94;56.35;99788.41;4424587;32;32052;-82
2022/05/17 12:20:22;;;;;;;10.27;7.18;;;;;;;24.10;55.81;99788.25;4411878;32;32257;-82
2022/05/17 12:23:12;;;;;;;14.52;7.62;;;;;;;24.07;54.00;99780.41;4412116;32;33457;-82
2022/05/17 12:25:47;;;;;;;10.90;8.20;;;;;;;24.38;53.73;99780.97;4412131;32;34140;-81
2022/05/17 12:28:47;;;;;;;10.63;7.65;;;;;;;24.24;53.96;99778.84;4414219;32;33009;-82
2022/05/17 12:31:21;;;;;;;9.80;7.47;;;;;;;24.27;54.04;99777.44;4412257;32;33108;-83
2022/05/17 12:33:53;;;;;;;10.40;7.75;;;;;;;24.03;52.96;99777.41;4412001;32;32996;-82